KDABKNQX

Guest
Details From KDAB - Daytona Beach Intl
To KNQX - Key West Nas
Flight Number -
Tags Generated
Created
Modified
Stats Distance 278 nm / 516 km
Max Altitude 0 ft / 0 m
Waypoints 3
Social Downloads 1
Likes 0
Share VATSIM

Download

Looking for another format? Having issues loading an existing format? Contact us
Advertisement - Login to hide

Notes

Generated

Route

KDAB CORGI KNQX

ID Type Via Altitude Latitude Longitude Leg Dist Tot Dist Heading (true) Name
O KDAB APT - 0 ft / 0 m 29.17603˚ -81.05684˚ - 0 nm - Daytona Beach Intl
CORGI FIX - 0 ft / 0 m 24.86180˚ -81.71375˚ 261 nm 261 nm 188° / 188° -
O KNQX APT - 0 ft / 0 m 24.57899˚ -81.69226˚ 17 nm 278 nm 176° / 176° -

Altitude Profile

Advertisement - Login to hide

Weather


0- 5 10 15 20 25 30 35+ Temperature / ° C

Clouds and Precipitation
Forecast for 2017-12-17 06:00 UTC. Updated 2 hours ago

Ground ~20,000 ft ~40,000 ft Winds

KDAB

Details ICAO KDAB (DAB)
Name Daytona Beach Intl
Region United States
Timezone America/New_York (UTC-5.0)
Stats Elevation 34 ft / 10 m (AMSL)
Location 29.179918° -81.055946°
Runways 3
Magnetic Variation 6.673° W

METAR

KDAB 170253Z 33004KT 9SM CLR 13/12 A3028 RMK AO2 SLP253 T01280117 53007

Decode

TAF

TAF KDAB 162332Z 1700/1724 05004KT P6SM SCT250 FM170200 00000KT P6SM FEW020 BKN250 TEMPO 1709/1713 5SM BR FM171400 13006KT P6SM FEW030 FM171800 10006KT P6SM FEW040 BKN250

Decode

Departure Runways

ID Width Length Bearing (true) Bearing (mag) Surface Threshold Offset Overrun Length
07L 151 ft / 46 m 10,492 ft / 3,198 m 65.10° 71.77° Asphalt 689 ft / 210 m 0 ft / 0 m
07R 98 ft / 30 m 3,193 ft / 973 m 65.04° 71.71° Asphalt 0 ft / 0 m 0 ft / 0 m
16 151 ft / 46 m 6,018 ft / 1,834 m 157.27° 163.94° Asphalt 0 ft / 0 m 200 ft / 61 m
25L 98 ft / 30 m 3,193 ft / 973 m 245.04° 251.71° Asphalt 0 ft / 0 m 0 ft / 0 m
25R 151 ft / 46 m 10,492 ft / 3,198 m 245.12° 251.79° Asphalt 0 ft / 0 m 0 ft / 0 m
34 151 ft / 46 m 6,018 ft / 1,834 m 337.27° 343.94° Asphalt 0 ft / 0 m 200 ft / 61 m

KNQX

Details ICAO KNQX (NQX)
Name Key West NAS
Region United States
Timezone America/New_York (UTC-5.0)
Stats Elevation 6 ft / 2 m (AMSL)
Location 24.574382° -81.686809°
Runways 3
Magnetic Variation 5.594° W

METAR

KNQX 170253Z 06008KT 10SM FEW030 SCT220 22/19 A3020 RMK AO2 SLP225 T02170194 53014 $

Decode

TAF

Not found

Destination Runways

ID Width Length Bearing (true) Bearing (mag) Surface Threshold Offset Overrun Length
03 150 ft / 46 m 7,019 ft / 2,140 m 31.33° 36.92° Asphalt 0 ft / 0 m 950 ft / 290 m
07 200 ft / 61 m 9,991 ft / 3,045 m 72.90° 78.49° Asphalt 0 ft / 0 m 965 ft / 294 m
13 150 ft / 46 m 7,007 ft / 2,136 m 131.01° 136.60° Asphalt 0 ft / 0 m 718 ft / 219 m
21 150 ft / 46 m 7,019 ft / 2,140 m 211.33° 216.92° Asphalt 0 ft / 0 m 690 ft / 210 m
25 200 ft / 61 m 9,991 ft / 3,045 m 252.91° 258.50° Asphalt 0 ft / 0 m 1,000 ft / 305 m
31 150 ft / 46 m 7,007 ft / 2,136 m 311.01° 316.60° Asphalt 0 ft / 0 m 712 ft / 217 m

Popular Alternatives